sensor_id;sensor_type;location;lat;lon;timestamp;pressure;altitude;pressure_sealevel;temperature;humidity
37238;BME280;23129;49.662;8.448;2023-04-26T00:01:10;100910.97;;;6.65;nan
37238;BME280;23129;49.662;8.448;2023-04-26T00:03:41;100911.84;;;6.61;nan
37238;BME280;23129;49.662;8.448;2023-04-26T00:06:10;100910.13;;;6.60;nan
37238;BME280;23129;49.662;8.448;2023-04-26T00:08:40;100913.63;;;6.56;nan
37238;BME280;23129;49.662;8.448;2023-04-26T00:11:09;100917.97;;;6.54;nan
37238;BME280;23129;49.662;8.448;2023-04-26T00:13:38;100915.38;;;6.51;nan
37238;BME280;23129;49.662;8.448;2023-04-26T00:16:07;100909.31;;;6.50;nan
37238;BME280;23129;49.662;8.448;2023-04-26T00:18:37;100913.66;;;6.50;nan
37238;BME280;23129;49.662;8.448;2023-04-26T00:21:06;100915.38;;;6.48;nan
37238;BME280;23129;49.662;8.448;2023-04-26T00:23:35;100911.06;;;6.47;nan
37238;BME280;23129;49.662;8.448;2023-04-26T00:26:04;100921.47;;;6.47;nan
37238;BME280;23129;49.662;8.448;2023-04-26T00:28:33;100922.34;;;6.43;nan
37238;BME280;23129;49.662;8.448;2023-04-26T00:31:02;100920.63;;;6.42;nan
37238;BME280;23129;49.662;8.448;2023-04-26T00:33:31;100916.28;;;6.39;nan
37238;BME280;23129;49.662;8.448;2023-04-26T00:36:01;100911.94;;;6.39;nan
37238;BME280;23129;49.662;8.448;2023-04-26T00:38:29;100917.16;;;6.36;nan
37238;BME280;23129;49.662;8.448;2023-04-26T00:40:59;100918.91;;;6.34;nan
37238;BME280;23129;49.662;8.448;2023-04-26T00:43:27;100915.44;;;6.32;nan
37238;BME280;23129;49.662;8.448;2023-04-26T00:45:56;100922.38;;;6.30;nan
37238;BME280;23129;49.662;8.448;2023-04-26T00:48:25;100922.38;;;6.27;nan
37238;BME280;23129;49.662;8.448;2023-04-26T00:50:55;100926.72;;;6.22;nan
37238;BME280;23129;49.662;8.448;2023-04-26T00:53:26;100921.53;;;6.19;nan
37238;BME280;23129;49.662;8.448;2023-04-26T00:55:55;100924.16;;;6.13;nan
37238;BME280;23129;49.662;8.448;2023-04-26T00:58:24;100917.25;;;6.07;nan
37238;BME280;23129;49.662;8.448;2023-04-26T01:00:53;100918.13;;;6.02;nan
37238;BME280;23129;49.662;8.448;2023-04-26T01:03:23;100917.25;;;5.97;nan
37238;BME280;23129;49.662;8.448;2023-04-26T01:05:53;100920.69;;;5.92;nan
37238;BME280;23129;49.662;8.448;2023-04-26T01:08:25;100929.38;;;5.88;nan
37238;BME280;23129;49.662;8.448;2023-04-26T01:10:54;100921.56;;;5.82;nan
37238;BME280;23129;49.662;8.448;2023-04-26T01:13:24;100923.31;;;5.79;nan
37238;BME280;23129;49.662;8.448;2023-04-26T01:15:54;100925.91;;;5.74;nan
37238;BME280;23129;49.662;8.448;2023-04-26T01:18:23;100919.84;;;5.69;nan
37238;BME280;23129;49.662;8.448;2023-04-26T01:20:52;100920.69;;;5.65;nan
37238;BME280;23129;49.662;8.448;2023-04-26T01:23:25;100921.56;;;5.62;nan
37238;BME280;23129;49.662;8.448;2023-04-26T01:25:54;100927.66;;;5.60;nan
37238;BME280;23129;49.662;8.448;2023-04-26T01:28:22;100921.56;;;5.58;nan
37238;BME280;23129;49.662;8.448;2023-04-26T01:30:51;100919.84;;;5.58;nan
37238;BME280;23129;49.662;8.448;2023-04-26T01:33:20;100927.66;;;5.60;nan
37238;BME280;23129;49.662;8.448;2023-04-26T01:35:51;100918.97;;;5.58;nan
37238;BME280;23129;49.662;8.448;2023-04-26T01:38:19;100912.03;;;5.54;nan
37238;BME280;23129;49.662;8.448;2023-04-26T01:40:49;100911.16;;;5.52;nan
37238;BME280;23129;49.662;8.448;2023-04-26T01:43:18;100909.44;;;5.46;nan
37238;BME280;23129;49.662;8.448;2023-04-26T01:45:48;100916.38;;;5.42;nan
37238;BME280;23129;49.662;8.448;2023-04-26T01:48:29;100914.59;;;5.38;nan
37238;BME280;23129;49.662;8.448;2023-04-26T01:51:00;100915.47;;;5.37;nan
37238;BME280;23129;49.662;8.448;2023-04-26T01:53:29;100905.06;;;5.34;nan
37238;BME280;23129;49.662;8.448;2023-04-26T01:56:01;100910.28;;;5.34;nan
37238;BME280;23129;49.662;8.448;2023-04-26T01:58:30;100911.13;;;5.29;nan
37238;BME280;23129;49.662;8.448;2023-04-26T02:01:05;100912.00;;;5.28;nan
37238;BME280;23129;49.662;8.448;2023-04-26T02:03:34;100904.19;;;5.21;nan
37238;BME280;23129;49.662;8.448;2023-04-26T02:06:04;100915.47;;;5.22;nan
37238;BME280;23129;49.662;8.448;2023-04-26T02:08:32;100917.19;;;5.20;nan
37238;BME280;23129;49.662;8.448;2023-04-26T02:11:02;100913.72;;;5.19;nan
37238;BME280;23129;49.662;8.448;2023-04-26T02:13:31;100916.31;;;5.16;nan
37238;BME280;23129;49.662;8.448;2023-04-26T02:16:00;100919.78;;;5.14;nan
37238;BME280;23129;49.662;8.448;2023-04-26T02:18:31;100908.50;;;5.10;nan
37238;BME280;23129;49.662;8.448;2023-04-26T02:21:00;100913.72;;;5.09;nan
37238;BME280;23129;49.662;8.448;2023-04-26T02:23:30;100918.91;;;5.06;nan
37238;BME280;23129;49.662;8.448;2023-04-26T02:25:59;100917.16;;;5.01;nan
37238;BME280;23129;49.662;8.448;2023-04-26T02:28:29;100918.03;;;4.97;nan
37238;BME280;23129;49.662;8.448;2023-04-26T02:30:58;100917.13;;;4.92;nan
37238;BME280;23129;49.662;8.448;2023-04-26T02:33:27;100917.13;;;4.88;nan
37238;BME280;23129;49.662;8.448;2023-04-26T02:35:56;100914.53;;;4.85;nan
37238;BME280;23129;49.662;8.448;2023-04-26T02:38:25;100917.09;;;4.80;nan
37238;BME280;23129;49.662;8.448;2023-04-26T02:40:57;100919.69;;;4.80;nan
37238;BME280;23129;49.662;8.448;2023-04-26T02:43:27;100918.81;;;4.75;nan
37238;BME280;23129;49.662;8.448;2023-04-26T02:45:57;100922.28;;;4.74;nan
37238;BME280;23129;49.662;8.448;2023-04-26T02:48:29;100912.75;;;4.70;nan
37238;BME280;23129;49.662;8.448;2023-04-26T02:50:58;100907.53;;;4.67;nan
37238;BME280;23129;49.662;8.448;2023-04-26T02:53:26;100908.38;;;4.63;nan
37238;BME280;23129;49.662;8.448;2023-04-26T02:55:55;100913.56;;;4.63;nan
37238;BME280;23129;49.662;8.448;2023-04-26T02:58:24;100917.03;;;4.58;nan
37238;BME280;23129;49.662;8.448;2023-04-26T03:00:52;100917.00;;;4.55;nan
37238;BME280;23129;49.662;8.448;2023-04-26T03:03:26;100917.00;;;4.55;nan
37238;BME280;23129;49.662;8.448;2023-04-26T03:05:56;100922.19;;;4.52;nan
37238;BME280;23129;49.662;8.448;2023-04-26T03:08:25;100921.31;;;4.52;nan
37238;BME280;23129;49.662;8.448;2023-04-26T03:10:53;100917.84;;;4.50;nan
37238;BME280;23129;49.662;8.448;2023-04-26T03:13:22;100916.97;;;4.49;nan
37238;BME280;23129;49.662;8.448;2023-04-26T03:15:53;100925.63;;;4.48;nan
37238;BME280;23129;49.662;8.448;2023-04-26T03:18:22;100922.19;;;4.49;nan
37238;BME280;23129;49.662;8.448;2023-04-26T03:20:52;100918.72;;;4.50;nan
37238;BME280;23129;49.662;8.448;2023-04-26T03:23:20;100911.78;;;4.49;nan
37238;BME280;23129;49.662;8.448;2023-04-26T03:25:52;100920.41;;;4.48;nan
37238;BME280;23129;49.662;8.448;2023-04-26T03:28:21;100916.97;;;4.46;nan
37238;BME280;23129;49.662;8.448;2023-04-26T03:30:50;100917.84;;;4.47;nan
37238;BME280;23129;49.662;8.448;2023-04-26T03:33:19;100920.41;;;4.44;nan
37238;BME280;23129;49.662;8.448;2023-04-26T03:35:48;100916.97;;;4.46;nan
37238;BME280;23129;49.662;8.448;2023-04-26T03:38:19;100915.22;;;4.45;nan
37238;BME280;23129;49.662;8.448;2023-04-26T03:40:47;100911.75;;;4.40;nan
37238;BME280;23129;49.662;8.448;2023-04-26T03:43:16;100918.63;;;4.40;nan
37238;BME280;23129;49.662;8.448;2023-04-26T03:45:46;100915.19;;;4.39;nan
37238;BME280;23129;49.662;8.448;2023-04-26T03:48:16;100921.22;;;4.37;nan
37238;BME280;23129;49.662;8.448;2023-04-26T03:50:45;100919.47;;;4.32;nan
37238;BME280;23129;49.662;8.448;2023-04-26T03:53:13;100918.59;;;4.29;nan
37238;BME280;23129;49.662;8.448;2023-04-26T03:55:45;100918.59;;;4.26;nan
37238;BME280;23129;49.662;8.448;2023-04-26T03:58:14;100922.91;;;4.22;nan
37238;BME280;23129;49.662;8.448;2023-04-26T04:00:43;100914.19;;;4.19;nan
37238;BME280;23129;49.662;8.448;2023-04-26T04:03:11;100916.78;;;4.16;nan
37238;BME280;23129;49.662;8.448;2023-04-26T04:05:40;100909.88;;;4.15;nan
37238;BME280;23129;49.662;8.448;2023-04-26T04:08:09;100909.84;;;4.11;nan
37238;BME280;23129;49.662;8.448;2023-04-26T04:10:38;100913.28;;;4.09;nan
37238;BME280;23129;49.662;8.448;2023-04-26T04:13:10;100914.16;;;4.08;nan
37238;BME280;23129;49.662;8.448;2023-04-26T04:15:40;100913.28;;;4.04;nan
37238;BME280;23129;49.662;8.448;2023-04-26T04:18:09;100918.44;;;4.01;nan
37238;BME280;23129;49.662;8.448;2023-04-26T04:20:39;100914.94;;;3.96;nan
37238;BME280;23129;49.662;8.448;2023-04-26T04:23:08;100918.41;;;3.95;nan
37238;BME280;23129;49.662;8.448;2023-04-26T04:25:39;100923.56;;;3.92;nan
37238;BME280;23129;49.662;8.448;2023-04-26T04:28:12;100927.03;;;3.94;nan
37238;BME280;23129;49.662;8.448;2023-04-26T04:30:41;100923.59;;;3.95;nan
37238;BME280;23129;49.662;8.448;2023-04-26T04:33:12;100928.75;;;3.94;nan
37238;BME280;23129;49.662;8.448;2023-04-26T04:35:41;100933.94;;;3.89;nan
37238;BME280;23129;49.662;8.448;2023-04-26T04:38:11;100934.72;;;3.80;nan
37238;BME280;23129;49.662;8.448;2023-04-26T04:40:40;100936.34;;;3.67;nan
37238;BME280;23129;49.662;8.448;2023-04-26T04:43:11;100927.63;;;3.58;nan
37238;BME280;23129;49.662;8.448;2023-04-26T04:45:40;100937.94;;;3.52;nan
37238;BME280;23129;49.662;8.448;2023-04-26T04:48:09;100948.31;;;3.52;nan
37238;BME280;23129;49.662;8.448;2023-04-26T04:50:40;100945.72;;;3.50;nan
37238;BME280;23129;49.662;8.448;2023-04-26T04:53:09;100952.63;;;3.51;nan
37238;BME280;23129;49.662;8.448;2023-04-26T04:55:38;100958.72;;;3.55;nan
37238;BME280;23129;49.662;8.448;2023-04-26T04:58:08;100955.28;;;3.57;nan
37238;BME280;23129;49.662;8.448;2023-04-26T05:00:38;100960.50;;;3.60;nan
37238;BME280;23129;49.662;8.448;2023-04-26T05:03:16;100971.75;;;3.62;nan
37238;BME280;23129;49.662;8.448;2023-04-26T05:05:45;100970.94;;;3.65;nan
37238;BME280;23129;49.662;8.448;2023-04-26T05:08:15;100971.81;;;3.69;nan
37238;BME280;23129;49.662;8.448;2023-04-26T05:10:44;100971.00;;;3.74;nan
37238;BME280;23129;49.662;8.448;2023-04-26T05:13:14;100970.16;;;3.80;nan
37238;BME280;23129;49.662;8.448;2023-04-26T05:15:44;100972.84;;;3.87;nan
37238;BME280;23129;49.662;8.448;2023-04-26T05:18:13;100977.22;;;3.93;nan
37238;BME280;23129;49.662;8.448;2023-04-26T05:20:42;100978.97;;;4.00;nan
37238;BME280;23129;49.662;8.448;2023-04-26T05:23:11;100977.28;;;4.05;nan
37238;BME280;23129;49.662;8.448;2023-04-26T05:25:40;100972.16;;;4.11;nan
37238;BME280;23129;49.662;8.448;2023-04-26T05:28:29;100988.63;;;4.18;nan
37238;BME280;23129;49.662;8.448;2023-04-26T05:31:24;100984.38;;;4.25;nan
37238;BME280;23129;49.662;8.448;2023-04-26T05:34:02;100980.91;;;4.29;nan
37238;BME280;23129;49.662;8.448;2023-04-26T05:36:36;100993.06;;;4.36;nan
37238;BME280;23129;49.662;8.448;2023-04-26T05:39:05;100981.00;;;4.41;nan
37238;BME280;23129;49.662;8.448;2023-04-26T05:41:34;100986.22;;;4.47;nan
37238;BME280;23129;49.662;8.448;2023-04-26T05:44:03;100986.25;;;4.53;nan
37238;BME280;23129;49.662;8.448;2023-04-26T05:46:33;100991.50;;;4.63;nan
37238;BME280;23129;49.662;8.448;2023-04-26T05:49:02;100986.34;;;4.69;nan
37238;BME280;23129;49.662;8.448;2023-04-26T05:51:31;100982.06;;;4.77;nan
37238;BME280;23129;49.662;8.448;2023-04-26T05:53:59;100988.16;;;4.85;nan
37238;BME280;23129;49.662;8.448;2023-04-26T05:56:28;100987.34;;;4.94;nan
37238;BME280;23129;49.662;8.448;2023-04-26T05:58:57;100999.47;;;5.01;nan
37238;BME280;23129;49.662;8.448;2023-04-26T06:01:26;101001.25;;;5.07;nan
37238;BME280;23129;49.662;8.448;2023-04-26T06:03:56;101002.13;;;5.15;nan
37238;BME280;23129;49.662;8.448;2023-04-26T06:06:31;101006.47;;;5.19;nan
37238;BME280;23129;49.662;8.448;2023-04-26T06:09:00;101005.63;;;5.26;nan
37238;BME280;23129;49.662;8.448;2023-04-26T06:11:29;101006.53;;;5.34;nan
37238;BME280;23129;49.662;8.448;2023-04-26T06:13:58;101006.56;;;5.42;nan
37238;BME280;23129;49.662;8.448;2023-04-26T06:16:26;101004.81;;;5.52;nan
37238;BME280;23129;49.662;8.448;2023-04-26T06:18:56;101014.38;;;5.59;nan
37238;BME280;23129;49.662;8.448;2023-04-26T06:21:28;101011.78;;;5.66;nan
37238;BME280;23129;49.662;8.448;2023-04-26T06:23:57;101009.19;;;5.74;nan
37238;BME280;23129;49.662;8.448;2023-04-26T06:26:28;101012.66;;;5.85;nan
37238;BME280;23129;49.662;8.448;2023-04-26T06:28:57;101005.78;;;5.97;nan
37238;BME280;23129;49.662;8.448;2023-04-26T06:31:26;101018.81;;;6.07;nan
37238;BME280;23129;49.662;8.448;2023-04-26T06:33:58;101013.56;;;6.18;nan
37238;BME280;23129;49.662;8.448;2023-04-26T06:36:27;101015.31;;;6.24;nan
37238;BME280;23129;49.662;8.448;2023-04-26T06:38:57;101016.16;;;6.33;nan
37238;BME280;23129;49.662;8.448;2023-04-26T06:41:26;101013.56;;;6.41;nan
37238;BME280;23129;49.662;8.448;2023-04-26T06:43:54;101007.47;;;6.50;nan
37238;BME280;23129;49.662;8.448;2023-04-26T06:46:30;101012.66;;;6.59;nan
37238;BME280;23129;49.662;8.448;2023-04-26T06:49:00;101007.41;;;6.68;nan
37238;BME280;23129;49.662;8.448;2023-04-26T06:51:29;101003.91;;;6.75;nan
37238;BME280;23129;49.662;8.448;2023-04-26T06:53:57;100996.06;;;6.86;nan
37238;BME280;23129;49.662;8.448;2023-04-26T06:56:27;100997.75;;;6.98;nan
37238;BME280;23129;49.662;8.448;2023-04-26T06:59:00;100995.97;;;7.12;nan
37238;BME280;23129;49.662;8.448;2023-04-26T07:01:30;101002.81;;;7.24;nan
37238;BME280;23129;49.662;8.448;2023-04-26T07:04:02;101003.63;;;7.40;nan
37238;BME280;23129;49.662;8.448;2023-04-26T07:06:34;101006.19;;;7.49;nan
37238;BME280;23129;49.662;8.448;2023-04-26T07:09:03;101006.97;;;7.63;nan
37238;BME280;23129;49.662;8.448;2023-04-26T07:11:31;100998.13;;;7.80;nan
37238;BME280;23129;49.662;8.448;2023-04-26T07:14:00;100999.75;;;7.96;nan
37238;BME280;23129;49.662;8.448;2023-04-26T07:16:29;101000.44;;;8.16;nan
37238;BME280;23129;49.662;8.448;2023-04-26T07:18:58;100996.78;;;8.34;nan
37238;BME280;23129;49.662;8.448;2023-04-26T07:21:30;100999.94;;;8.72;nan
37238;BME280;23129;49.662;8.448;2023-04-26T07:23:59;101000.25;;;9.15;nan
37238;BME280;23129;49.662;8.448;2023-04-26T07:26:28;100985.78;;;9.54;nan
37238;BME280;23129;49.662;8.448;2023-04-26T07:28:57;100988.94;;;9.75;nan
37238;BME280;23129;49.662;8.448;2023-04-26T07:31:26;100993.03;;;9.91;nan
37238;BME280;23129;49.662;8.448;2023-04-26T07:33:55;100994.34;;;10.18;nan
37238;BME280;23129;49.662;8.448;2023-04-26T07:36:24;100991.13;;;10.54;nan
37238;BME280;23129;49.662;8.448;2023-04-26T07:38:55;100993.06;;;10.89;nan
37238;BME280;23129;49.662;8.448;2023-04-26T07:41:24;100984.34;;;11.27;nan
37238;BME280;23129;49.662;8.448;2023-04-26T07:43:53;100981.47;;;11.75;nan
37238;BME280;23129;49.662;8.448;2023-04-26T07:46:21;100977.59;;;12.27;nan
37238;BME280;23129;49.662;8.448;2023-04-26T07:48:50;100988.81;;;12.67;nan
37238;BME280;23129;49.662;8.448;2023-04-26T07:51:19;100983.34;;;13.04;nan
37238;BME280;23129;49.662;8.448;2023-04-26T07:53:47;100987.75;;;13.35;nan
37238;BME280;23129;49.662;8.448;2023-04-26T07:56:17;100980.53;;;13.68;nan
37238;BME280;23129;49.662;8.448;2023-04-26T07:58:46;100982.25;;;13.97;nan
37238;BME280;23129;49.662;8.448;2023-04-26T08:01:15;100985.41;;;14.33;nan
37238;BME280;23129;49.662;8.448;2023-04-26T08:03:43;100972.94;;;14.64;nan
37238;BME280;23129;49.662;8.448;2023-04-26T08:06:12;100975.81;;;14.81;nan
37238;BME280;23129;49.662;8.448;2023-04-26T08:08:41;100975.59;;;15.11;nan
37238;BME280;23129;49.662;8.448;2023-04-26T08:11:11;100981.38;;;15.42;nan
37238;BME280;23129;49.662;8.448;2023-04-26T08:13:41;100979.56;;;15.66;nan
37238;BME280;23129;49.662;8.448;2023-04-26T08:16:10;100983.16;;;16.08;nan
37238;BME280;23129;49.662;8.448;2023-04-26T08:18:39;100979.16;;;16.40;nan
37238;BME280;23129;49.662;8.448;2023-04-26T08:21:10;100986.59;;;16.71;nan
37238;BME280;23129;49.662;8.448;2023-04-26T08:23:39;100974.16;;;16.94;nan
37238;BME280;23129;49.662;8.448;2023-04-26T08:26:07;100969.41;;;17.19;nan
37238;BME280;23129;49.662;8.448;2023-04-26T08:28:36;100967.63;;;17.39;nan
37238;BME280;23129;49.662;8.448;2023-04-26T08:31:06;100971.34;;;17.71;nan
37238;BME280;23129;49.662;8.448;2023-04-26T08:33:36;100974.91;;;17.89;nan
37238;BME280;23129;49.662;8.448;2023-04-26T08:36:05;100975.41;;;18.14;nan
37238;BME280;23129;49.662;8.448;2023-04-26T08:38:34;100971.66;;;18.18;nan
37238;BME280;23129;49.662;8.448;2023-04-26T08:41:04;100965.75;;;18.13;nan
37238;BME280;23129;49.662;8.448;2023-04-26T08:43:36;100957.31;;;18.22;nan
37238;BME280;23129;49.662;8.448;2023-04-26T08:46:11;100966.47;;;18.50;nan
37238;BME280;23129;49.662;8.448;2023-04-26T08:48:43;100966.63;;;18.82;nan
37238;BME280;23129;49.662;8.448;2023-04-26T08:51:13;100960.63;;;19.10;nan
37238;BME280;23129;49.662;8.448;2023-04-26T08:53:43;100957.03;;;19.43;nan
37238;BME280;23129;49.662;8.448;2023-04-26T08:56:14;100957.00;;;19.58;nan
37238;BME280;23129;49.662;8.448;2023-04-26T08:58:43;100956.44;;;19.53;nan
37238;BME280;23129;49.662;8.448;2023-04-26T09:01:14;100951.38;;;19.33;nan
37238;BME280;23129;49.662;8.448;2023-04-26T09:03:43;100950.84;;;19.10;nan
37238;BME280;23129;49.662;8.448;2023-04-26T09:06:12;100953.94;;;19.03;nan
37238;BME280;23129;49.662;8.448;2023-04-26T09:08:42;100944.50;;;18.97;nan
37238;BME280;23129;49.662;8.448;2023-04-26T09:11:11;100951.47;;;19.00;nan
37238;BME280;23129;49.662;8.448;2023-04-26T09:13:40;100952.19;;;18.86;nan
37238;BME280;23129;49.662;8.448;2023-04-26T09:16:08;100943.22;;;18.71;nan
37238;BME280;23129;49.662;8.448;2023-04-26T09:18:47;100945.59;;;18.77;nan
37238;BME280;23129;49.662;8.448;2023-04-26T09:21:18;100946.78;;;18.87;nan
37238;BME280;23129;49.662;8.448;2023-04-26T09:23:56;100945.91;;;19.36;nan
37238;BME280;23129;49.662;8.448;2023-04-26T09:26:25;100950.50;;;19.48;nan
37238;BME280;23129;49.662;8.448;2023-04-26T09:29:13;100948.16;;;19.74;nan
37238;BME280;23129;49.662;8.448;2023-04-26T09:31:44;100954.16;;;19.93;nan
37238;BME280;23129;49.662;8.448;2023-04-26T09:34:17;100943.19;;;20.14;nan
37238;BME280;23129;49.662;8.448;2023-04-26T09:36:47;100942.72;;;19.91;nan
37238;BME280;23129;49.662;8.448;2023-04-26T09:39:32;100946.72;;;19.68;nan
37238;BME280;23129;49.662;8.448;2023-04-26T09:42:03;100948.94;;;19.44;nan
37238;BME280;23129;49.662;8.448;2023-04-26T09:44:35;100946.66;;;19.54;nan
37238;BME280;23129;49.662;8.448;2023-04-26T09:47:05;100941.22;;;19.55;nan
37238;BME280;23129;49.662;8.448;2023-04-26T09:49:45;100942.97;;;19.56;nan
37238;BME280;23129;49.662;8.448;2023-04-26T09:52:15;100942.97;;;19.25;nan
37238;BME280;23129;49.662;8.448;2023-04-26T09:54:46;100936.94;;;19.05;nan
37238;BME280;23129;49.662;8.448;2023-04-26T09:57:17;100939.38;;;18.94;nan
37238;BME280;23129;49.662;8.448;2023-04-26T09:59:47;100937.78;;;18.90;nan
37238;BME280;23129;49.662;8.448;2023-04-26T10:02:19;100934.91;;;19.10;nan
37238;BME280;23129;49.662;8.448;2023-04-26T10:04:53;100927.34;;;19.19;nan
37238;BME280;23129;49.662;8.448;2023-04-26T10:07:23;100927.63;;;19.30;nan
37238;BME280;23129;49.662;8.448;2023-04-26T10:09:52;100929.41;;;19.45;nan
37238;BME280;23129;49.662;8.448;2023-04-26T10:12:22;100934.91;;;19.42;nan
37238;BME280;23129;49.662;8.448;2023-04-26T10:14:51;100933.94;;;19.11;nan
37238;BME280;23129;49.662;8.448;2023-04-26T10:17:19;100928.84;;;18.75;nan
37238;BME280;23129;49.662;8.448;2023-04-26T10:19:54;100929.97;;;18.54;nan
37238;BME280;23129;49.662;8.448;2023-04-26T10:22:28;100931.59;;;18.23;nan
37238;BME280;23129;49.662;8.448;2023-04-26T10:25:00;100934.09;;;18.09;nan
37238;BME280;23129;49.662;8.448;2023-04-26T10:27:50;100934.88;;;18.28;nan
37238;BME280;23129;49.662;8.448;2023-04-26T10:30:20;100936.03;;;18.40;nan
37238;BME280;23129;49.662;8.448;2023-04-26T10:33:14;100931.16;;;18.48;nan
37238;BME280;23129;49.662;8.448;2023-04-26T10:36:09;100929.44;;;18.47;nan
37238;BME280;23129;49.662;8.448;2023-04-26T10:38:40;100925.31;;;18.41;nan
37238;BME280;23129;49.662;8.448;2023-04-26T10:41:37;100920.31;;;18.35;nan
37238;BME280;23129;49.662;8.448;2023-04-26T10:44:38;100922.47;;;18.11;nan
37238;BME280;23129;49.662;8.448;2023-04-26T10:47:25;100920.44;;;17.82;nan
37238;BME280;23129;49.662;8.448;2023-04-26T10:50:03;100917.19;;;17.57;nan
37238;BME280;23129;49.662;8.448;2023-04-26T10:52:34;100907.53;;;17.38;nan
37238;BME280;23129;49.662;8.448;2023-04-26T10:55:03;100905.28;;;17.30;nan
37238;BME280;23129;49.662;8.448;2023-04-26T10:57:50;100904.88;;;17.38;nan
37238;BME280;23129;49.662;8.448;2023-04-26T11:00:27;100887.94;;;17.59;nan
37238;BME280;23129;49.662;8.448;2023-04-26T11:03:03;100893.75;;;17.85;nan
37238;BME280;23129;49.662;8.448;2023-04-26T11:05:47;100893.19;;;18.13;nan
37238;BME280;23129;49.662;8.448;2023-04-26T11:08:22;100875.53;;;18.45;nan
37238;BME280;23129;49.662;8.448;2023-04-26T11:10:58;100883.59;;;19.08;nan
37238;BME280;23129;49.662;8.448;2023-04-26T11:13:32;100878.72;;;19.63;nan
37238;BME280;23129;49.662;8.448;2023-04-26T11:16:04;100860.78;;;20.25;nan
37238;BME280;23129;49.662;8.448;2023-04-26T11:18:34;100868.59;;;20.85;nan
37238;BME280;23129;49.662;8.448;2023-04-26T11:21:05;100863.44;;;21.51;nan
37238;BME280;23129;49.662;8.448;2023-04-26T11:23:35;100867.91;;;22.03;nan
37238;BME280;23129;49.662;8.448;2023-04-26T11:26:05;100855.09;;;22.33;nan
37238;BME280;23129;49.662;8.448;2023-04-26T11:28:36;100853.06;;;22.50;nan
37238;BME280;23129;49.662;8.448;2023-04-26T11:31:05;100858.34;;;22.75;nan
37238;BME280;23129;49.662;8.448;2023-04-26T11:33:34;100847.84;;;22.98;nan
37238;BME280;23129;49.662;8.448;2023-04-26T11:36:03;100857.72;;;23.33;nan
37238;BME280;23129;49.662;8.448;2023-04-26T11:38:33;100856.19;;;23.41;nan
37238;BME280;23129;49.662;8.448;2023-04-26T11:41:03;100865.59;;;23.47;nan
37238;BME280;23129;49.662;8.448;2023-04-26T11:43:35;100854.34;;;23.31;nan
37238;BME280;23129;49.662;8.448;2023-04-26T11:46:05;100845.50;;;23.17;nan
37238;BME280;23129;49.662;8.448;2023-04-26T11:48:36;100844.47;;;23.31;nan
37238;BME280;23129;49.662;8.448;2023-04-26T11:51:06;100841.91;;;23.65;nan
37238;BME280;23129;49.662;8.448;2023-04-26T11:53:37;100839.81;;;23.81;nan
37238;BME280;23129;49.662;8.448;2023-04-26T11:56:17;100829.94;;;23.93;nan
37238;BME280;23129;49.662;8.448;2023-04-26T11:58:47;100833.78;;;23.66;nan
37238;BME280;23129;49.662;8.448;2023-04-26T12:01:23;100825.81;;;23.89;nan
37238;BME280;23129;49.662;8.448;2023-04-26T12:03:53;100828.53;;;24.11;nan
37238;BME280;23129;49.662;8.448;2023-04-26T12:06:28;100823.78;;;24.15;nan
37238;BME280;23129;49.662;8.448;2023-04-26T12:09:02;100834.63;;;24.02;nan
37238;BME280;23129;49.662;8.448;2023-04-26T12:11:32;100831.19;;;24.00;nan
37238;BME280;23129;49.662;8.448;2023-04-26T12:14:01;100820.97;;;24.17;nan
37238;BME280;23129;49.662;8.448;2023-04-26T12:16:30;100819.13;;;24.28;nan
37238;BME280;23129;49.662;8.448;2023-04-26T12:18:59;100817.56;;;24.37;nan
37238;BME280;23129;49.662;8.448;2023-04-26T12:21:39;100821.59;;;24.43;nan
37238;BME280;23129;49.662;8.448;2023-04-26T12:24:22;100818.78;;;24.33;nan
37238;BME280;23129;49.662;8.448;2023-04-26T12:26:51;100819.72;;;23.87;nan
37238;BME280;23129;49.662;8.448;2023-04-26T12:29:19;100828.22;;;23.69;nan
37238;BME280;23129;49.662;8.448;2023-04-26T12:31:48;100821.81;;;23.95;nan
37238;BME280;23129;49.662;8.448;2023-04-26T12:34:16;100818.28;;;24.17;nan
37238;BME280;23129;49.662;8.448;2023-04-26T12:36:45;100824.28;;;24.54;nan
37238;BME280;23129;49.662;8.448;2023-04-26T12:39:14;100819.00;;;24.86;nan
37238;BME280;23129;49.662;8.448;2023-04-26T12:41:44;100821.63;;;24.97;nan
37238;BME280;23129;49.662;8.448;2023-04-26T12:44:13;100818.88;;;25.31;nan
37238;BME280;23129;49.662;8.448;2023-04-26T12:46:42;100813.59;;;25.62;nan
37238;BME280;23129;49.662;8.448;2023-04-26T12:49:11;100813.66;;;25.92;nan
37238;BME280;23129;49.662;8.448;2023-04-26T12:51:39;100804.81;;;26.11;nan
37238;BME280;23129;49.662;8.448;2023-04-26T12:54:08;100811.34;;;26.39;nan
37238;BME280;23129;49.662;8.448;2023-04-26T12:56:36;100815.09;;;26.58;nan
37238;BME280;23129;49.662;8.448;2023-04-26T12:59:11;100805.25;;;26.88;nan
37238;BME280;23129;49.662;8.448;2023-04-26T13:01:40;100802.72;;;26.96;nan
37238;BME280;23129;49.662;8.448;2023-04-26T13:04:08;100808.50;;;26.81;nan
37238;BME280;23129;49.662;8.448;2023-04-26T13:06:37;100809.50;;;26.90;nan
37238;BME280;23129;49.662;8.448;2023-04-26T13:09:06;100804.31;;;27.18;nan
37238;BME280;23129;49.662;8.448;2023-04-26T13:11:35;100806.72;;;27.30;nan
37238;BME280;23129;49.662;8.448;2023-04-26T13:14:04;100811.81;;;27.34;nan
37238;BME280;23129;49.662;8.448;2023-04-26T13:16:35;100803.72;;;27.14;nan
37238;BME280;23129;49.662;8.448;2023-04-26T13:19:08;100811.75;;;26.75;nan
37238;BME280;23129;49.662;8.448;2023-04-26T13:21:38;100811.63;;;26.46;nan
37238;BME280;23129;49.662;8.448;2023-04-26T13:24:07;100808.00;;;25.95;nan
37238;BME280;23129;49.662;8.448;2023-04-26T13:26:36;100808.31;;;25.60;nan
37238;BME280;23129;49.662;8.448;2023-04-26T13:29:04;100810.91;;;25.62;nan
37238;BME280;23129;49.662;8.448;2023-04-26T13:31:34;100811.28;;;25.78;nan
37238;BME280;23129;49.662;8.448;2023-04-26T13:34:04;100807.00;;;25.76;nan
37238;BME280;23129;49.662;8.448;2023-04-26T13:36:33;100814.41;;;25.41;nan